sensor_id;sensor_type;location;lat;lon;timestamp;P1;durP1;ratioP1;P2;durP2;ratioP2
61322;SDS011;47203;48.428;11.974;2023-12-22T00:02:01;2.35;;;1.48;;
61322;SDS011;47203;48.428;11.974;2023-12-22T00:04:07;1.95;;;1.20;;
61322;SDS011;47203;48.428;11.974;2023-12-22T00:06:09;1.48;;;1.10;;
61322;SDS011;47203;48.428;11.974;2023-12-22T00:08:15;1.23;;;1.13;;
61322;SDS011;47203;48.428;11.974;2023-12-22T00:10:20;1.33;;;1.23;;
61322;SDS011;47203;48.428;11.974;2023-12-22T00:12:25;1.77;;;1.15;;
61322;SDS011;47203;48.428;11.974;2023-12-22T00:14:28;2.20;;;1.25;;
61322;SDS011;47203;48.428;11.974;2023-12-22T00:16:33;1.40;;;1.30;;
61322;SDS011;47203;48.428;11.974;2023-12-22T00:18:41;1.80;;;1.20;;
61322;SDS011;47203;48.428;11.974;2023-12-22T00:20:47;2.58;;;1.40;;
61322;SDS011;47203;48.428;11.974;2023-12-22T00:22:52;1.10;;;1.00;;
61322;SDS011;47203;48.428;11.974;2023-12-22T00:24:57;1.40;;;1.30;;
61322;SDS011;47203;48.428;11.974;2023-12-22T00:27:02;2.22;;;1.20;;
61322;SDS011;47203;48.428;11.974;2023-12-22T00:29:08;3.05;;;1.13;;
61322;SDS011;47203;48.428;11.974;2023-12-22T00:31:13;2.00;;;1.10;;
61322;SDS011;47203;48.428;11.974;2023-12-22T00:33:18;2.33;;;1.35;;
61322;SDS011;47203;48.428;11.974;2023-12-22T00:35:25;1.50;;;1.40;;
61322;SDS011;47203;48.428;11.974;2023-12-22T00:37:30;2.80;;;1.50;;
61322;SDS011;47203;48.428;11.974;2023-12-22T00:39:36;3.53;;;1.45;;
61322;SDS011;47203;48.428;11.974;2023-12-22T00:41:47;1.85;;;1.30;;
61322;SDS011;47203;48.428;11.974;2023-12-22T00:43:59;1.77;;;1.30;;
61322;SDS011;47203;48.428;11.974;2023-12-22T00:46:04;2.40;;;1.80;;
61322;SDS011;47203;48.428;11.974;2023-12-22T00:48:09;2.17;;;1.35;;
61322;SDS011;47203;48.428;11.974;2023-12-22T00:50:14;1.83;;;1.40;;
61322;SDS011;47203;48.428;11.974;2023-12-22T00:52:22;2.70;;;1.65;;
61322;SDS011;47203;48.428;11.974;2023-12-22T00:54:29;2.25;;;1.30;;
61322;SDS011;47203;48.428;11.974;2023-12-22T00:56:34;2.28;;;1.33;;
61322;SDS011;47203;48.428;11.974;2023-12-22T00:58:39;2.58;;;1.38;;
61322;SDS011;47203;48.428;11.974;2023-12-22T01:00:50;2.13;;;1.42;;
61322;SDS011;47203;48.428;11.974;2023-12-22T01:02:55;2.00;;;1.05;;
61322;SDS011;47203;48.428;11.974;2023-12-22T01:05:00;3.05;;;1.15;;
61322;SDS011;47203;48.428;11.974;2023-12-22T01:07:02;1.55;;;0.93;;
61322;SDS011;47203;48.428;11.974;2023-12-22T01:09:10;1.85;;;0.93;;
61322;SDS011;47203;48.428;11.974;2023-12-22T01:11:16;5.68;;;2.03;;
61322;SDS011;47203;48.428;11.974;2023-12-22T01:13:21;3.15;;;1.40;;
61322;SDS011;47203;48.428;11.974;2023-12-22T01:15:26;2.75;;;1.20;;
61322;SDS011;47203;48.428;11.974;2023-12-22T01:17:31;2.50;;;1.10;;
61322;SDS011;47203;48.428;11.974;2023-12-22T01:19:35;2.58;;;1.30;;
61322;SDS011;47203;48.428;11.974;2023-12-22T01:21:40;2.35;;;1.02;;
61322;SDS011;47203;48.428;11.974;2023-12-22T01:23:45;2.55;;;1.20;;
61322;SDS011;47203;48.428;11.974;2023-12-22T01:25:52;2.60;;;1.15;;
61322;SDS011;47203;48.428;11.974;2023-12-22T01:27:57;2.75;;;1.30;;
61322;SDS011;47203;48.428;11.974;2023-12-22T01:30:01;1.48;;;1.20;;
61322;SDS011;47203;48.428;11.974;2023-12-22T01:32:06;1.92;;;1.33;;
61322;SDS011;47203;48.428;11.974;2023-12-22T01:34:12;1.48;;;1.25;;
61322;SDS011;47203;48.428;11.974;2023-12-22T01:36:17;2.85;;;1.30;;
61322;SDS011;47203;48.428;11.974;2023-12-22T01:38:22;1.63;;;1.20;;
61322;SDS011;47203;48.428;11.974;2023-12-22T01:40:27;2.10;;;1.23;;
61322;SDS011;47203;48.428;11.974;2023-12-22T01:42:32;2.17;;;1.27;;
61322;SDS011;47203;48.428;11.974;2023-12-22T01:44:37;1.55;;;1.20;;
61322;SDS011;47203;48.428;11.974;2023-12-22T01:46:39;1.67;;;1.08;;
61322;SDS011;47203;48.428;11.974;2023-12-22T01:48:44;2.33;;;1.45;;
61322;SDS011;47203;48.428;11.974;2023-12-22T01:50:51;3.42;;;2.00;;
61322;SDS011;47203;48.428;11.974;2023-12-22T01:52:57;1.38;;;1.27;;
61322;SDS011;47203;48.428;11.974;2023-12-22T01:55:03;1.83;;;1.30;;
61322;SDS011;47203;48.428;11.974;2023-12-22T01:57:09;2.20;;;1.38;;
61322;SDS011;47203;48.428;11.974;2023-12-22T01:59:22;3.35;;;1.40;;
61322;SDS011;47203;48.428;11.974;2023-12-22T02:01:27;2.47;;;1.60;;
61322;SDS011;47203;48.428;11.974;2023-12-22T02:03:32;2.20;;;1.40;;
61322;SDS011;47203;48.428;11.974;2023-12-22T02:05:39;2.78;;;1.55;;
61322;SDS011;47203;48.428;11.974;2023-12-22T02:07:45;3.63;;;1.50;;
61322;SDS011;47203;48.428;11.974;2023-12-22T02:09:51;2.15;;;1.30;;
61322;SDS011;47203;48.428;11.974;2023-12-22T02:11:56;2.30;;;1.52;;
61322;SDS011;47203;48.428;11.974;2023-12-22T02:14:01;3.90;;;1.40;;
61322;SDS011;47203;48.428;11.974;2023-12-22T02:16:10;2.33;;;1.50;;
61322;SDS011;47203;48.428;11.974;2023-12-22T02:18:24;1.58;;;1.30;;
61322;SDS011;47203;48.428;11.974;2023-12-22T02:20:35;3.25;;;1.25;;
61322;SDS011;47203;48.428;11.974;2023-12-22T02:22:45;1.98;;;1.30;;
61322;SDS011;47203;48.428;11.974;2023-12-22T02:24:50;1.70;;;1.50;;
61322;SDS011;47203;48.428;11.974;2023-12-22T02:26:55;1.73;;;1.20;;
61322;SDS011;47203;48.428;11.974;2023-12-22T02:29:02;1.40;;;1.30;;
61322;SDS011;47203;48.428;11.974;2023-12-22T02:31:10;1.85;;;1.35;;
61322;SDS011;47203;48.428;11.974;2023-12-22T02:33:21;2.03;;;1.30;;
61322;SDS011;47203;48.428;11.974;2023-12-22T02:35:29;4.47;;;1.55;;
61322;SDS011;47203;48.428;11.974;2023-12-22T02:37:37;1.88;;;1.38;;
61322;SDS011;47203;48.428;11.974;2023-12-22T02:39:46;3.25;;;1.30;;
61322;SDS011;47203;48.428;11.974;2023-12-22T02:41:52;1.67;;;1.20;;
61322;SDS011;47203;48.428;11.974;2023-12-22T02:43:57;5.90;;;1.40;;
61322;SDS011;47203;48.428;11.974;2023-12-22T02:46:02;2.22;;;1.20;;
61322;SDS011;47203;48.428;11.974;2023-12-22T02:48:07;2.72;;;1.33;;
61322;SDS011;47203;48.428;11.974;2023-12-22T02:50:11;1.90;;;1.30;;
61322;SDS011;47203;48.428;11.974;2023-12-22T02:52:17;2.65;;;1.35;;
61322;SDS011;47203;48.428;11.974;2023-12-22T02:54:22;1.88;;;1.30;;
61322;SDS011;47203;48.428;11.974;2023-12-22T02:56:32;1.73;;;1.58;;
61322;SDS011;47203;48.428;11.974;2023-12-22T02:58:37;1.50;;;1.40;;
61322;SDS011;47203;48.428;11.974;2023-12-22T03:00:42;3.25;;;1.83;;
61322;SDS011;47203;48.428;11.974;2023-12-22T03:02:48;2.90;;;1.25;;
61322;SDS011;47203;48.428;11.974;2023-12-22T03:04:50;1.20;;;1.10;;
61322;SDS011;47203;48.428;11.974;2023-12-22T03:06:55;2.47;;;1.35;;
61322;SDS011;47203;48.428;11.974;2023-12-22T03:08:57;1.00;;;1.00;;
61322;SDS011;47203;48.428;11.974;2023-12-22T03:11:02;1.27;;;1.15;;
61322;SDS011;47203;48.428;11.974;2023-12-22T03:13:10;2.72;;;1.00;;
61322;SDS011;47203;48.428;11.974;2023-12-22T03:15:15;1.48;;;1.10;;
61322;SDS011;47203;48.428;11.974;2023-12-22T03:17:20;1.00;;;1.00;;
61322;SDS011;47203;48.428;11.974;2023-12-22T03:19:25;1.13;;;0.90;;
61322;SDS011;47203;48.428;11.974;2023-12-22T03:21:27;1.33;;;1.10;;
61322;SDS011;47203;48.428;11.974;2023-12-22T03:23:32;1.15;;;0.90;;
61322;SDS011;47203;48.428;11.974;2023-12-22T03:25:38;1.00;;;1.00;;
61322;SDS011;47203;48.428;11.974;2023-12-22T03:27:41;2.05;;;1.02;;
61322;SDS011;47203;48.428;11.974;2023-12-22T03:29:48;1.52;;;1.10;;
61322;SDS011;47203;48.428;11.974;2023-12-22T03:31:53;1.10;;;1.00;;
61322;SDS011;47203;48.428;11.974;2023-12-22T03:33:56;1.15;;;1.00;;
61322;SDS011;47203;48.428;11.974;2023-12-22T03:36:01;1.45;;;1.20;;
61322;SDS011;47203;48.428;11.974;2023-12-22T03:38:06;1.00;;;0.98;;
61322;SDS011;47203;48.428;11.974;2023-12-22T03:40:11;1.20;;;0.90;;
61322;SDS011;47203;48.428;11.974;2023-12-22T03:42:16;0.98;;;0.90;;
61322;SDS011;47203;48.428;11.974;2023-12-22T03:44:21;1.20;;;1.00;;
61322;SDS011;47203;48.428;11.974;2023-12-22T03:46:29;1.20;;;1.10;;
61322;SDS011;47203;48.428;11.974;2023-12-22T03:48:34;1.05;;;1.02;;
61322;SDS011;47203;48.428;11.974;2023-12-22T03:50:41;1.45;;;1.10;;
61322;SDS011;47203;48.428;11.974;2023-12-22T03:52:43;2.00;;;1.58;;
61322;SDS011;47203;48.428;11.974;2023-12-22T03:54:48;1.38;;;1.27;;
61322;SDS011;47203;48.428;11.974;2023-12-22T03:56:53;1.27;;;0.98;;
61322;SDS011;47203;48.428;11.974;2023-12-22T03:58:58;1.33;;;1.10;;
61322;SDS011;47203;48.428;11.974;2023-12-22T04:01:00;0.90;;;0.90;;
61322;SDS011;47203;48.428;11.974;2023-12-22T04:03:08;0.80;;;0.80;;
61322;SDS011;47203;48.428;11.974;2023-12-22T04:05:13;1.30;;;1.02;;
61322;SDS011;47203;48.428;11.974;2023-12-22T04:07:18;1.08;;;0.98;;
61322;SDS011;47203;48.428;11.974;2023-12-22T04:09:23;1.33;;;1.10;;
61322;SDS011;47203;48.428;11.974;2023-12-22T04:11:28;1.02;;;0.98;;
61322;SDS011;47203;48.428;11.974;2023-12-22T04:13:30;1.17;;;1.10;;
61322;SDS011;47203;48.428;11.974;2023-12-22T04:15:36;1.00;;;0.90;;
61322;SDS011;47203;48.428;11.974;2023-12-22T04:17:41;1.10;;;1.10;;
61322;SDS011;47203;48.428;11.974;2023-12-22T04:19:49;1.10;;;1.00;;
61322;SDS011;47203;48.428;11.974;2023-12-22T04:21:54;1.02;;;1.02;;
61322;SDS011;47203;48.428;11.974;2023-12-22T04:23:59;2.45;;;1.17;;
61322;SDS011;47203;48.428;11.974;2023-12-22T04:26:04;1.25;;;1.15;;
61322;SDS011;47203;48.428;11.974;2023-12-22T04:28:09;1.30;;;1.05;;
61322;SDS011;47203;48.428;11.974;2023-12-22T04:30:12;1.10;;;1.00;;
61322;SDS011;47203;48.428;11.974;2023-12-22T04:32:17;2.78;;;1.13;;
61322;SDS011;47203;48.428;11.974;2023-12-22T04:34:22;1.52;;;1.42;;
61322;SDS011;47203;48.428;11.974;2023-12-22T04:36:30;1.30;;;1.20;;
61322;SDS011;47203;48.428;11.974;2023-12-22T04:38:35;0.95;;;0.82;;
61322;SDS011;47203;48.428;11.974;2023-12-22T04:40:37;1.30;;;1.08;;
61322;SDS011;47203;48.428;11.974;2023-12-22T04:42:42;1.67;;;1.00;;
61322;SDS011;47203;48.428;11.974;2023-12-22T04:44:47;1.00;;;1.00;;
61322;SDS011;47203;48.428;11.974;2023-12-22T04:46:52;1.30;;;0.90;;
61322;SDS011;47203;48.428;11.974;2023-12-22T04:48:57;3.00;;;1.23;;
61322;SDS011;47203;48.428;11.974;2023-12-22T04:51:04;1.15;;;1.05;;
61322;SDS011;47203;48.428;11.974;2023-12-22T04:53:11;1.60;;;1.10;;
61322;SDS011;47203;48.428;11.974;2023-12-22T04:55:17;1.80;;;1.10;;
61322;SDS011;47203;48.428;11.974;2023-12-22T04:57:23;1.58;;;1.00;;
61322;SDS011;47203;48.428;11.974;2023-12-22T04:59:28;1.40;;;1.30;;
61322;SDS011;47203;48.428;11.974;2023-12-22T05:01:34;2.17;;;1.23;;
61322;SDS011;47203;48.428;11.974;2023-12-22T05:03:38;0.90;;;0.90;;
61322;SDS011;47203;48.428;11.974;2023-12-22T05:05:43;0.73;;;0.73;;
61322;SDS011;47203;48.428;11.974;2023-12-22T05:07:49;0.57;;;0.57;;
61322;SDS011;47203;48.428;11.974;2023-12-22T05:09:56;0.68;;;0.68;;
61322;SDS011;47203;48.428;11.974;2023-12-22T05:12:01;0.75;;;0.50;;
61322;SDS011;47203;48.428;11.974;2023-12-22T05:14:06;0.60;;;0.60;;
61322;SDS011;47203;48.428;11.974;2023-12-22T05:16:09;0.50;;;0.50;;
61322;SDS011;47203;48.428;11.974;2023-12-22T05:18:14;0.50;;;0.50;;
61322;SDS011;47203;48.428;11.974;2023-12-22T05:20:21;0.60;;;0.60;;
61322;SDS011;47203;48.428;11.974;2023-12-22T05:22:25;0.50;;;0.50;;
61322;SDS011;47203;48.428;11.974;2023-12-22T05:24:36;0.50;;;0.50;;
61322;SDS011;47203;48.428;11.974;2023-12-22T05:26:44;1.73;;;0.60;;
61322;SDS011;47203;48.428;11.974;2023-12-22T05:28:49;0.45;;;0.45;;
61322;SDS011;47203;48.428;11.974;2023-12-22T05:30:54;0.55;;;0.50;;
61322;SDS011;47203;48.428;11.974;2023-12-22T05:32:59;0.50;;;0.50;;
61322;SDS011;47203;48.428;11.974;2023-12-22T05:35:05;0.45;;;0.45;;
61322;SDS011;47203;48.428;11.974;2023-12-22T05:37:12;0.55;;;0.55;;
61322;SDS011;47203;48.428;11.974;2023-12-22T05:39:17;0.40;;;0.40;;
61322;SDS011;47203;48.428;11.974;2023-12-22T05:41:22;0.60;;;0.60;;
61322;SDS011;47203;48.428;11.974;2023-12-22T05:43:27;0.60;;;0.60;;
61322;SDS011;47203;48.428;11.974;2023-12-22T05:45:33;0.73;;;0.73;;
61322;SDS011;47203;48.428;11.974;2023-12-22T05:47:38;0.60;;;0.60;;
61322;SDS011;47203;48.428;11.974;2023-12-22T05:49:43;0.68;;;0.68;;
61322;SDS011;47203;48.428;11.974;2023-12-22T05:51:46;0.70;;;0.70;;
61322;SDS011;47203;48.428;11.974;2023-12-22T05:53:51;1.23;;;0.80;;
61322;SDS011;47203;48.428;11.974;2023-12-22T05:55:55;0.70;;;0.70;;
61322;SDS011;47203;48.428;11.974;2023-12-22T05:58:00;0.70;;;0.70;;
61322;SDS011;47203;48.428;11.974;2023-12-22T06:00:09;2.10;;;1.10;;
61322;SDS011;47203;48.428;11.974;2023-12-22T06:02:17;1.13;;;1.02;;
61322;SDS011;47203;48.428;11.974;2023-12-22T06:04:21;0.70;;;0.70;;
61322;SDS011;47203;48.428;11.974;2023-12-22T06:06:26;0.90;;;0.90;;
61322;SDS011;47203;48.428;11.974;2023-12-22T06:08:31;0.82;;;0.82;;
61322;SDS011;47203;48.428;11.974;2023-12-22T06:10:37;1.00;;;1.00;;
61322;SDS011;47203;48.428;11.974;2023-12-22T06:12:42;1.00;;;1.00;;
61322;SDS011;47203;48.428;11.974;2023-12-22T06:14:45;0.90;;;0.90;;
61322;SDS011;47203;48.428;11.974;2023-12-22T06:16:52;0.93;;;0.90;;
61322;SDS011;47203;48.428;11.974;2023-12-22T06:18:59;0.90;;;0.90;;
61322;SDS011;47203;48.428;11.974;2023-12-22T06:21:05;1.73;;;1.02;;
61322;SDS011;47203;48.428;11.974;2023-12-22T06:23:10;0.90;;;0.90;;
61322;SDS011;47203;48.428;11.974;2023-12-22T06:25:13;1.02;;;0.98;;
61322;SDS011;47203;48.428;11.974;2023-12-22T06:27:18;0.82;;;0.82;;
61322;SDS011;47203;48.428;11.974;2023-12-22T06:29:23;1.20;;;0.88;;
61322;SDS011;47203;48.428;11.974;2023-12-22T06:31:32;1.35;;;0.80;;
61322;SDS011;47203;48.428;11.974;2023-12-22T06:33:37;2.20;;;1.00;;
61322;SDS011;47203;48.428;11.974;2023-12-22T06:35:42;1.05;;;0.80;;
61322;SDS011;47203;48.428;11.974;2023-12-22T06:37:47;1.33;;;0.73;;
61322;SDS011;47203;48.428;11.974;2023-12-22T06:39:49;1.52;;;0.70;;
61322;SDS011;47203;48.428;11.974;2023-12-22T06:41:54;0.80;;;0.75;;
61322;SDS011;47203;48.428;11.974;2023-12-22T06:43:59;0.60;;;0.60;;
61322;SDS011;47203;48.428;11.974;2023-12-22T06:46:13;1.15;;;0.90;;
61322;SDS011;47203;48.428;11.974;2023-12-22T06:48:16;0.55;;;0.55;;
61322;SDS011;47203;48.428;11.974;2023-12-22T06:50:24;0.98;;;0.73;;
61322;SDS011;47203;48.428;11.974;2023-12-22T06:52:29;0.80;;;0.80;;
61322;SDS011;47203;48.428;11.974;2023-12-22T06:54:34;1.25;;;0.90;;
61322;SDS011;47203;48.428;11.974;2023-12-22T06:56:39;1.20;;;1.10;;
61322;SDS011;47203;48.428;11.974;2023-12-22T06:58:44;0.90;;;0.90;;
61322;SDS011;47203;48.428;11.974;2023-12-22T07:00:51;0.90;;;0.90;;
61322;SDS011;47203;48.428;11.974;2023-12-22T07:02:57;1.50;;;1.10;;
61322;SDS011;47203;48.428;11.974;2023-12-22T07:05:03;1.98;;;1.10;;
61322;SDS011;47203;48.428;11.974;2023-12-22T07:07:40;1.30;;;1.20;;
61322;SDS011;47203;48.428;11.974;2023-12-22T07:09:42;1.30;;;1.20;;
61322;SDS011;47203;48.428;11.974;2023-12-22T07:11:48;1.05;;;1.00;;
61322;SDS011;47203;48.428;11.974;2023-12-22T07:13:54;2.25;;;1.10;;
61322;SDS011;47203;48.428;11.974;2023-12-22T07:15:58;0.80;;;0.80;;
61322;SDS011;47203;48.428;11.974;2023-12-22T07:18:04;0.98;;;0.98;;
61322;SDS011;47203;48.428;11.974;2023-12-22T07:20:10;1.10;;;1.00;;
61322;SDS011;47203;48.428;11.974;2023-12-22T07:22:18;3.47;;;2.20;;
61322;SDS011;47203;48.428;11.974;2023-12-22T07:24:23;1.88;;;1.50;;
61322;SDS011;47203;48.428;11.974;2023-12-22T07:26:29;1.05;;;1.00;;
61322;SDS011;47203;48.428;11.974;2023-12-22T07:28:33;1.00;;;1.00;;
61322;SDS011;47203;48.428;11.974;2023-12-22T07:30:38;1.52;;;1.30;;
61322;SDS011;47203;48.428;11.974;2023-12-22T07:32:44;2.15;;;1.70;;
61322;SDS011;47203;48.428;11.974;2023-12-22T07:34:50;1.92;;;1.42;;
61322;SDS011;47203;48.428;11.974;2023-12-22T07:36:55;4.20;;;2.45;;
61322;SDS011;47203;48.428;11.974;2023-12-22T07:39:10;2.45;;;2.00;;
61322;SDS011;47203;48.428;11.974;2023-12-22T07:41:18;2.25;;;1.50;;
61322;SDS011;47203;48.428;11.974;2023-12-22T07:43:23;2.08;;;1.48;;
61322;SDS011;47203;48.428;11.974;2023-12-22T07:45:32;1.55;;;1.40;;
61322;SDS011;47203;48.428;11.974;2023-12-22T07:47:38;4.43;;;2.45;;
61322;SDS011;47203;48.428;11.974;2023-12-22T07:49:40;3.13;;;2.10;;
61322;SDS011;47203;48.428;11.974;2023-12-22T07:51:48;3.63;;;2.53;;
61322;SDS011;47203;48.428;11.974;2023-12-22T07:53:53;2.25;;;2.00;;
61322;SDS011;47203;48.428;11.974;2023-12-22T07:56:02;3.05;;;1.77;;
61322;SDS011;47203;48.428;11.974;2023-12-22T07:58:09;1.58;;;1.40;;
61322;SDS011;47203;48.428;11.974;2023-12-22T08:00:15;1.95;;;1.60;;
61322;SDS011;47203;48.428;11.974;2023-12-22T08:02:20;2.63;;;2.05;;
61322;SDS011;47203;48.428;11.974;2023-12-22T08:04:26;3.78;;;2.30;;
61322;SDS011;47203;48.428;11.974;2023-12-22T08:06:31;4.85;;;2.60;;
61322;SDS011;47203;48.428;11.974;2023-12-22T08:08:36;3.22;;;2.00;;
61322;SDS011;47203;48.428;11.974;2023-12-22T08:10:42;4.20;;;2.80;;
61322;SDS011;47203;48.428;11.974;2023-12-22T08:12:50;4.15;;;2.05;;
61322;SDS011;47203;48.428;11.974;2023-12-22T08:14:55;3.80;;;2.30;;
61322;SDS011;47203;48.428;11.974;2023-12-22T08:17:00;5.20;;;3.10;;
61322;SDS011;47203;48.428;11.974;2023-12-22T08:19:05;2.08;;;1.40;;
61322;SDS011;47203;48.428;11.974;2023-12-22T08:21:11;1.65;;;1.40;;
61322;SDS011;47203;48.428;11.974;2023-12-22T08:23:34;2.85;;;2.15;;
61322;SDS011;47203;48.428;11.974;2023-12-22T08:25:47;4.03;;;1.88;;
61322;SDS011;47203;48.428;11.974;2023-12-22T08:27:55;3.90;;;3.30;;
61322;SDS011;47203;48.428;11.974;2023-12-22T08:30:00;5.68;;;3.30;;
61322;SDS011;47203;48.428;11.974;2023-12-22T08:32:05;6.35;;;3.33;;
61322;SDS011;47203;48.428;11.974;2023-12-22T08:34:11;4.93;;;3.83;;
61322;SDS011;47203;48.428;11.974;2023-12-22T08:36:14;4.38;;;2.70;;
61322;SDS011;47203;48.428;11.974;2023-12-22T08:38:20;4.90;;;2.70;;
61322;SDS011;47203;48.428;11.974;2023-12-22T08:40:25;4.63;;;2.70;;
61322;SDS011;47203;48.428;11.974;2023-12-22T08:42:30;4.60;;;2.50;;
61322;SDS011;47203;48.428;11.974;2023-12-22T08:44:38;6.28;;;4.35;;
61322;SDS011;47203;48.428;11.974;2023-12-22T08:46:44;3.72;;;2.80;;
61322;SDS011;47203;48.428;11.974;2023-12-22T08:48:49;8.73;;;5.28;;
61322;SDS011;47203;48.428;11.974;2023-12-22T08:50:51;5.70;;;3.35;;
61322;SDS011;47203;48.428;11.974;2023-12-22T08:52:56;3.88;;;2.67;;
61322;SDS011;47203;48.428;11.974;2023-12-22T08:55:01;3.95;;;1.90;;
61322;SDS011;47203;48.428;11.974;2023-12-22T08:57:07;2.10;;;1.55;;
61322;SDS011;47203;48.428;11.974;2023-12-22T08:59:12;2.63;;;1.73;;
61322;SDS011;47203;48.428;11.974;2023-12-22T09:01:21;2.85;;;1.90;;
61322;SDS011;47203;48.428;11.974;2023-12-22T09:03:27;4.72;;;1.73;;
61322;SDS011;47203;48.428;11.974;2023-12-22T09:05:32;2.95;;;2.17;;
61322;SDS011;47203;48.428;11.974;2023-12-22T09:07:37;2.00;;;1.30;;
61322;SDS011;47203;48.428;11.974;2023-12-22T09:09:43;4.45;;;1.90;;
61322;SDS011;47203;48.428;11.974;2023-12-22T09:11:56;3.22;;;1.98;;
61322;SDS011;47203;48.428;11.974;2023-12-22T09:14:02;3.50;;;1.92;;
61322;SDS011;47203;48.428;11.974;2023-12-22T09:16:11;3.38;;;1.77;;
61322;SDS011;47203;48.428;11.974;2023-12-22T09:18:20;4.25;;;1.92;;
61322;SDS011;47203;48.428;11.974;2023-12-22T09:20:25;2.53;;;1.67;;
61322;SDS011;47203;48.428;11.974;2023-12-22T09:22:31;4.28;;;1.65;;
61322;SDS011;47203;48.428;11.974;2023-12-22T09:24:37;3.28;;;1.45;;
61322;SDS011;47203;48.428;11.974;2023-12-22T09:26:42;4.40;;;1.58;;
61322;SDS011;47203;48.428;11.974;2023-12-22T09:28:47;2.55;;;1.70;;
61322;SDS011;47203;48.428;11.974;2023-12-22T09:30:52;3.92;;;2.10;;
61322;SDS011;47203;48.428;11.974;2023-12-22T09:32:55;2.00;;;1.48;;
61322;SDS011;47203;48.428;11.974;2023-12-22T09:35:03;3.78;;;1.52;;
61322;SDS011;47203;48.428;11.974;2023-12-22T09:37:09;5.38;;;2.17;;
61322;SDS011;47203;48.428;11.974;2023-12-22T09:39:15;3.47;;;2.05;;
61322;SDS011;47203;48.428;11.974;2023-12-22T09:41:20;3.90;;;2.25;;
61322;SDS011;47203;48.428;11.974;2023-12-22T09:43:25;5.47;;;2.45;;
61322;SDS011;47203;48.428;11.974;2023-12-22T09:45:30;5.07;;;2.15;;
61322;SDS011;47203;48.428;11.974;2023-12-22T09:47:34;2.67;;;1.30;;
61322;SDS011;47203;48.428;11.974;2023-12-22T09:49:40;3.20;;;1.48;;
61322;SDS011;47203;48.428;11.974;2023-12-22T09:51:50;2.25;;;1.17;;
61322;SDS011;47203;48.428;11.974;2023-12-22T09:53:55;2.20;;;1.60;;
61322;SDS011;47203;48.428;11.974;2023-12-22T09:56:05;3.63;;;1.67;;
61322;SDS011;47203;48.428;11.974;2023-12-22T09:58:12;2.13;;;1.42;;
61322;SDS011;47203;48.428;11.974;2023-12-22T10:00:18;3.05;;;1.45;;
61322;SDS011;47203;48.428;11.974;2023-12-22T10:02:28;2.38;;;1.20;;
61322;SDS011;47203;48.428;11.974;2023-12-22T10:04:35;4.53;;;1.90;;
61322;SDS011;47203;48.428;11.974;2023-12-22T10:06:40;2.88;;;1.77;;
61322;SDS011;47203;48.428;11.974;2023-12-22T10:08:48;4.75;;;1.73;;
61322;SDS011;47203;48.428;11.974;2023-12-22T10:10:55;4.03;;;1.88;;
61322;SDS011;47203;48.428;11.974;2023-12-22T10:13:02;3.70;;;2.00;;
61322;SDS011;47203;48.428;11.974;2023-12-22T10:15:11;4.18;;;1.70;;
61322;SDS011;47203;48.428;11.974;2023-12-22T10:17:17;3.33;;;1.88;;
61322;SDS011;47203;48.428;11.974;2023-12-22T10:19:23;4.75;;;2.10;;
61322;SDS011;47203;48.428;11.974;2023-12-22T10:21:28;2.58;;;1.70;;
61322;SDS011;47203;48.428;11.974;2023-12-22T10:23:35;4.22;;;1.90;;
61322;SDS011;47203;48.428;11.974;2023-12-22T10:25:43;3.78;;;1.70;;
61322;SDS011;47203;48.428;11.974;2023-12-22T10:27:51;4.45;;;1.80;;
61322;SDS011;47203;48.428;11.974;2023-12-22T10:29:57;4.63;;;1.85;;
61322;SDS011;47203;48.428;11.974;2023-12-22T10:32:02;5.50;;;2.55;;
61322;SDS011;47203;48.428;11.974;2023-12-22T10:34:09;5.45;;;3.25;;
61322;SDS011;47203;48.428;11.974;2023-12-22T10:36:14;2.40;;;1.70;;
61322;SDS011;47203;48.428;11.974;2023-12-22T10:38:19;5.75;;;2.22;;
61322;SDS011;47203;48.428;11.974;2023-12-22T10:40:21;2.92;;;1.70;;
61322;SDS011;47203;48.428;11.974;2023-12-22T10:42:30;7.18;;;2.63;;
61322;SDS011;47203;48.428;11.974;2023-12-22T10:44:33;4.72;;;1.98;;
61322;SDS011;47203;48.428;11.974;2023-12-22T10:46:39;4.50;;;2.10;;
61322;SDS011;47203;48.428;11.974;2023-12-22T10:48:45;2.90;;;1.60;;
61322;SDS011;47203;48.428;11.974;2023-12-22T10:50:50;4.10;;;1.70;;
61322;SDS011;47203;48.428;11.974;2023-12-22T10:52:55;3.38;;;1.40;;
61322;SDS011;47203;48.428;11.974;2023-12-22T10:55:00;3.25;;;1.50;;
61322;SDS011;47203;48.428;11.974;2023-12-22T10:57:04;3.58;;;1.30;;
61322;SDS011;47203;48.428;11.974;2023-12-22T10:59:11;1.98;;;1.25;;
61322;SDS011;47203;48.428;11.974;2023-12-22T11:01:17;2.45;;;1.33;;
61322;SDS011;47203;48.428;11.974;2023-12-22T11:03:23;1.00;;;0.90;;
61322;SDS011;47203;48.428;11.974;2023-12-22T11:05:31;2.67;;;1.00;;
61322;SDS011;47203;48.428;11.974;2023-12-22T11:07:36;0.90;;;0.90;;
61322;SDS011;47203;48.428;11.974;2023-12-22T11:09:41;0.90;;;0.90;;
61322;SDS011;47203;48.428;11.974;2023-12-22T11:11:49;0.77;;;0.70;;
61322;SDS011;47203;48.428;11.974;2023-12-22T11:13:55;0.88;;;0.70;;
61322;SDS011;47203;48.428;11.974;2023-12-22T11:16:04;0.93;;;0.82;;
61322;SDS011;47203;48.428;11.974;2023-12-22T11:18:11;0.80;;;0.80;;
61322;SDS011;47203;48.428;11.974;2023-12-22T11:20:17;1.23;;;1.10;;
61322;SDS011;47203;48.428;11.974;2023-12-22T11:22:23;0.82;;;0.82;;
61322;SDS011;47203;48.428;11.974;2023-12-22T11:24:30;0.95;;;0.90;;
61322;SDS011;47203;48.428;11.974;2023-12-22T11:26:37;0.88;;;0.85;;
61322;SDS011;47203;48.428;11.974;2023-12-22T11:28:46;0.90;;;0.90;;
61322;SDS011;47203;48.428;11.974;2023-12-22T11:30:49;1.40;;;0.98;;
61322;SDS011;47203;48.428;11.974;2023-12-22T11:33:02;1.88;;;1.00;;
61322;SDS011;47203;48.428;11.974;2023-12-22T11:35:08;1.67;;;0.90;;
61322;SDS011;47203;48.428;11.974;2023-12-22T11:37:15;1.08;;;0.90;;
61322;SDS011;47203;48.428;11.974;2023-12-22T11:39:21;1.10;;;1.00;;
61322;SDS011;47203;48.428;11.974;2023-12-22T11:41:27;1.17;;;1.00;;
61322;SDS011;47203;48.428;11.974;2023-12-22T11:43:37;1.27;;;1.10;;
61322;SDS011;47203;48.428;11.974;2023-12-22T11:45:43;2.58;;;1.35;;
61322;SDS011;47203;48.428;11.974;2023-12-22T11:47:48;1.08;;;0.98;;
61322;SDS011;47203;48.428;11.974;2023-12-22T11:49:57;0.98;;;0.80;;
61322;SDS011;47203;48.428;11.974;2023-12-22T11:52:12;1.58;;;1.08;;
61322;SDS011;47203;48.428;11.974;2023-12-22T11:56:53;2.38;;;1.00;;
61322;SDS011;47203;48.428;11.974;2023-12-22T11:59:01;1.50;;;0.80;;
61322;SDS011;47203;48.428;11.974;2023-12-22T12:01:07;1.63;;;1.10;;
61322;SDS011;47203;48.428;11.974;2023-12-22T12:03:13;3.03;;;1.20;;
61322;SDS011;47203;48.428;11.974;2023-12-22T12:05:18;2.13;;;1.13;;
61322;SDS011;47203;48.428;11.974;2023-12-22T12:09:47;2.25;;;1.83;;
61322;SDS011;47203;48.428;11.974;2023-12-22T12:14:16;3.15;;;1.38;;
61322;SDS011;47203;48.428;11.974;2023-12-22T12:16:26;2.80;;;1.38;;
61322;SDS011;47203;48.428;11.974;2023-12-22T12:18:33;1.88;;;0.90;;
61322;SDS011;47203;48.428;11.974;2023-12-22T12:20:42;3.85;;;1.50;;
61322;SDS011;47203;48.428;11.974;2023-12-22T12:22:50;2.80;;;1.45;;
61322;SDS011;47203;48.428;11.974;2023-12-22T12:24:56;3.47;;;1.77;;
61322;SDS011;47203;48.428;11.974;2023-12-22T12:26:58;2.67;;;1.40;;
61322;SDS011;47203;48.428;11.974;2023-12-22T12:29:04;5.70;;;2.20;;
61322;SDS011;47203;48.428;11.974;2023-12-22T12:31:10;4.72;;;1.92;;
61322;SDS011;47203;48.428;11.974;2023-12-22T12:33:15;6.45;;;2.10;;
61322;SDS011;47203;48.428;11.974;2023-12-22T12:35:21;3.38;;;1.65;;